Time;durP1;ratioP1;P1;durP2;ratioP2;P2;SDS_P1;SDS_P2;PMS_P1;PMS_P2;Temp;Humidity;BMP_temperature;BMP_pressure;BME280_temperature;BME280_humidity;BME280_pressure;Samples;Min_cycle;Max_cycle;Signal;HPM_P1;HPM_P2
2023/01/21 00:00:25;;;;;;;0.50;0.50;;;12.20;45.50;;;;;;5086242;27;45165;-68
2023/01/21 00:02:52;;;;;;;1.33;0.90;;;12.20;45.70;;;;;;5085715;27;46689;-68
2023/01/21 00:05:20;;;;;;;1.00;0.80;;;12.20;45.70;;;;;;5085903;27;45245;-68
2023/01/21 00:07:47;;;;;;;1.87;0.80;;;12.20;45.60;;;;;;5085863;27;45362;-68
2023/01/21 00:10:13;;;;;;;0.40;0.40;;;12.10;45.50;;;;;;5086050;27;45168;-69
2023/01/21 00:12:40;;;;;;;0.57;0.57;;;12.10;45.60;;;;;;5085690;27;45228;-68
2023/01/21 00:15:08;;;;;;;1.10;0.90;;;12.10;45.50;;;;;;5085697;27;45334;-68
2023/01/21 00:17:35;;;;;;;0.87;0.87;;;12.10;45.60;;;;;;5085710;27;45512;-68
2023/01/21 00:20:02;;;;;;;1.37;1.00;;;12.10;45.50;;;;;;5085956;27;45207;-69
2023/01/21 00:22:30;;;;;;;0.70;0.70;;;12.10;45.40;;;;;;5085516;27;46708;-68
2023/01/21 00:24:57;;;;;;;0.63;0.63;;;12.10;45.50;;;;;;5085188;27;45866;-68
2023/01/21 00:27:24;;;;;;;1.10;0.60;;;12.10;45.40;;;;;;5085779;27;45329;-68
2023/01/21 00:29:51;;;;;;;0.83;0.80;;;12.10;45.40;;;;;;5085874;27;45287;-68
2023/01/21 00:32:18;;;;;;;0.70;0.70;;;12.10;45.20;;;;;;5085734;27;46109;-68
2023/01/21 00:34:45;;;;;;;1.27;0.80;;;12.10;45.20;;;;;;5085603;27;45216;-68
2023/01/21 00:37:12;;;;;;;0.87;0.70;;;12.10;45.00;;;;;;5085472;27;45248;-68
2023/01/21 00:39:41;;;;;;;2.20;0.80;;;12.20;45.00;;;;;;5085826;27;45327;-68
2023/01/21 00:42:10;;;;;;;1.13;0.80;;;12.20;44.80;;;;;;5085291;27;46868;-68
2023/01/21 00:44:37;;;;;;;1.13;0.80;;;12.20;44.70;;;;;;5085486;27;45190;-68
2023/01/21 00:47:03;;;;;;;0.60;0.60;;;12.30;44.60;;;;;;5085346;27;45417;-68
2023/01/21 00:49:30;;;;;;;0.63;0.63;;;12.30;44.50;;;;;;5085596;27;45376;-68
2023/01/21 00:51:57;;;;;;;1.17;0.83;;;12.40;44.40;;;;;;5085001;27;46544;-69
2023/01/21 00:54:24;;;;;;;0.67;0.67;;;12.40;44.30;;;;;;5085247;27;45269;-68
2023/01/21 00:56:52;;;;;;;0.77;0.77;;;12.40;44.30;;;;;;5085367;27;45275;-68
2023/01/21 00:59:19;;;;;;;0.77;0.77;;;12.40;44.40;;;;;;5085588;27;45451;-69
2023/01/21 01:01:46;;;;;;;0.97;0.70;;;12.30;44.30;;;;;;5085918;27;47294;-68
2023/01/21 01:04:13;;;;;;;0.70;0.70;;;12.30;44.30;;;;;;5086224;27;45288;-68
2023/01/21 01:06:40;;;;;;;0.60;0.60;;;12.30;44.20;;;;;;5086416;27;45192;-68
2023/01/21 01:09:07;;;;;;;0.77;0.50;;;12.20;44.40;;;;;;5088815;27;45127;-68
2023/01/21 01:11:33;;;;;;;0.77;0.60;;;12.20;44.40;;;;;;5088445;27;46415;-69
2023/01/21 01:14:02;;;;;;;0.70;0.70;;;12.20;44.50;;;;;;5088547;27;45272;-69
2023/01/21 01:16:28;;;;;;;1.67;1.00;;;12.20;44.50;;;;;;5089115;27;45196;-69
2023/01/21 01:18:55;;;;;;;0.50;0.50;;;12.10;44.40;;;;;;5089103;27;45259;-68
2023/01/21 01:21:22;;;;;;;0.80;0.80;;;12.10;44.40;;;;;;5088509;27;46422;-68
2023/01/21 01:23:50;;;;;;;0.70;0.70;;;12.10;44.40;;;;;;5088138;27;45425;-69
2023/01/21 01:26:18;;;;;;;0.57;0.53;;;12.10;44.50;;;;;;5088576;27;45428;-69
2023/01/21 01:28:45;;;;;;;0.83;0.70;;;12.10;44.50;;;;;;5088804;27;45407;-68
2023/01/21 01:31:14;;;;;;;0.60;0.57;;;12.10;44.60;;;;;;5088175;27;46662;-69
2023/01/21 01:33:41;;;;;;;0.70;0.70;;;12.00;44.50;;;;;;5088222;27;45368;-69
2023/01/21 01:36:10;;;;;;;0.83;0.53;;;12.10;44.70;;;;;;5088331;27;45245;-68
2023/01/21 01:38:37;;;;;;;0.80;0.80;;;12.00;44.50;;;;;;5088684;27;45248;-69
2023/01/21 01:41:04;;;;;;;1.23;0.60;;;12.00;44.60;;;;;;5088050;27;46389;-69
2023/01/21 01:43:49;;;;;;;0.70;0.60;;;11.90;44.50;;;;;;5087965;27;45365;-69
2023/01/21 01:46:18;;;;;;;0.70;0.50;;;11.90;44.50;;;;;;5088173;27;45347;-68
2023/01/21 01:48:46;;;;;;;0.47;0.40;;;11.90;44.70;;;;;;5088191;27;45481;-69
2023/01/21 01:51:13;;;;;;;0.53;0.50;;;11.90;44.60;;;;;;5087849;27;46307;-69
2023/01/21 01:53:40;;;;;;;0.43;0.43;;;11.90;44.60;;;;;;5087650;27;45323;-69
2023/01/21 01:56:07;;;;;;;0.50;0.50;;;11.90;44.70;;;;;;5088003;27;45387;-69
2023/01/21 01:58:34;;;;;;;0.47;0.47;;;11.90;44.60;;;;;;5088006;27;45416;-69
2023/01/21 02:01:01;;;;;;;0.60;0.60;;;11.80;44.60;;;;;;5087672;27;45232;-69
2023/01/21 02:06:18;;;;;;;0.40;0.37;;;11.80;44.50;;;;;;5085388;27;45241;-69
2023/01/21 02:08:46;;;;;;;0.50;0.50;;;11.80;44.60;;;;;;5087842;27;45551;-70
2023/01/21 02:11:13;;;;;;;0.40;0.40;;;11.80;44.70;;;;;;5087376;27;45439;-69
2023/01/21 02:13:40;;;;;;;0.80;0.67;;;11.80;44.50;;;;;;5087273;27;45448;-69
2023/01/21 02:16:34;;;;;;;0.57;0.57;;;11.70;44.60;;;;;;5087744;27;45245;-69
2023/01/21 02:19:08;;;;;;;0.50;0.50;;;11.80;44.40;;;;;;5083487;28;45553;-69
2023/01/21 02:21:47;;;;;;;0.53;0.53;;;11.80;44.40;;;;;;5087142;27;46383;-69
2023/01/21 02:24:47;;;;;;;0.60;0.40;;;11.80;44.40;;;;;;5087161;27;45216;-68
2023/01/21 02:27:36;;;;;;;0.40;0.40;;;11.80;44.20;;;;;;5087434;27;45430;-69
2023/01/21 02:30:36;;;;;;;0.80;0.50;;;11.80;44.10;;;;;;5087621;27;45142;-68
2023/01/21 02:33:33;;;;;;;0.40;0.40;;;11.90;44.10;;;;;;5072753;27;47106;-69
2023/01/21 02:36:09;;;;;;;0.50;0.40;;;11.90;44.00;;;;;;5087200;27;45343;-69
2023/01/21 02:38:40;;;;;;;0.60;0.60;;;11.90;43.90;;;;;;5087147;27;45397;-69
2023/01/21 02:41:15;;;;;;;0.70;0.67;;;11.90;43.80;;;;;;5087419;27;45293;-68
2023/01/21 02:43:46;;;;;;;0.50;0.50;;;11.90;43.80;;;;;;5086951;27;45484;-69
2023/01/21 02:46:14;;;;;;;0.30;0.30;;;12.00;43.80;;;;;;5086966;27;45310;-68
2023/01/21 02:48:44;;;;;;;0.40;0.40;;;12.00;43.70;;;;;;5087022;27;45198;-68
2023/01/21 02:51:12;;;;;;;1.47;0.67;;;12.00;43.60;;;;;;5087317;27;45365;-69
2023/01/21 02:53:39;;;;;;;1.00;0.50;;;12.00;43.60;;;;;;5086678;27;47594;-69
2023/01/21 02:56:06;;;;;;;0.60;0.40;;;12.00;43.60;;;;;;5087189;27;45210;-69
2023/01/21 02:58:34;;;;;;;0.40;0.40;;;12.10;43.60;;;;;;5086963;27;45188;-68
2023/01/21 03:01:08;;;;;;;0.50;0.50;;;12.00;43.60;;;;;;5087061;27;45324;-68
2023/01/21 03:03:41;;;;;;;0.50;0.50;;;12.00;43.70;;;;;;5086604;27;46674;-68
2023/01/21 03:06:21;;;;;;;0.70;0.40;;;12.00;43.80;;;;;;5086752;27;45214;-69
2023/01/21 03:08:50;;;;;;;0.93;0.50;;;11.90;43.70;;;;;;5086821;27;45335;-68
2023/01/21 03:11:18;;;;;;;0.57;0.50;;;11.90;43.70;;;;;;5086851;27;45228;-69
2023/01/21 03:19:19;;;;;;;0.50;0.50;;;11.90;43.90;;;;;;5084007;28;45154;-69
2023/01/21 03:21:47;;;;;;;0.40;0.40;;;11.80;43.80;;;;;;5087069;27;45245;-69
2023/01/21 03:24:14;;;;;;;0.63;0.50;;;11.80;43.80;;;;;;5086096;27;45436;-69
2023/01/21 03:26:44;;;;;;;0.30;0.30;;;11.80;44.00;;;;;;5086306;27;45272;-69
2023/01/21 03:29:13;;;;;;;0.40;0.30;;;11.80;43.90;;;;;;5086598;27;45210;-68
2023/01/21 03:31:40;;;;;;;0.40;0.40;;;11.70;44.00;;;;;;5085478;27;45399;-68
2023/01/21 03:34:08;;;;;;;0.30;0.30;;;11.70;43.90;;;;;;5086041;27;46283;-69
2023/01/21 03:36:37;;;;;;;0.43;0.43;;;11.70;44.10;;;;;;5086598;27;45164;-68
2023/01/21 03:39:09;;;;;;;0.40;0.40;;;11.60;44.00;;;;;;5086262;27;45302;-68
2023/01/21 03:41:36;;;;;;;0.60;0.43;;;11.60;44.10;;;;;;5086526;27;45214;-68
2023/01/21 03:44:03;;;;;;;0.30;0.30;;;11.60;44.20;;;;;;5085985;27;46689;-69
2023/01/21 03:46:34;;;;;;;0.40;0.40;;;11.60;44.10;;;;;;5086208;27;45450;-68
2023/01/21 03:49:04;;;;;;;0.70;0.70;;;11.60;44.10;;;;;;5086115;27;45216;-69
2023/01/21 03:51:33;;;;;;;0.50;0.50;;;11.60;44.10;;;;;;5086262;27;45277;-68
2023/01/21 03:53:59;;;;;;;0.40;0.40;;;11.60;44.10;;;;;;5085751;27;45249;-69
2023/01/21 03:56:28;;;;;;;0.40;0.40;;;11.60;44.00;;;;;;5085967;27;45346;-69
2023/01/21 03:58:55;;;;;;;0.50;0.50;;;11.60;43.90;;;;;;5086157;27;45313;-69
2023/01/21 04:01:22;;;;;;;0.40;0.40;;;11.60;43.80;;;;;;5086507;27;45312;-69
2023/01/21 04:03:48;;;;;;;0.30;0.30;;;11.60;43.60;;;;;;5085794;27;46322;-69
2023/01/21 04:06:16;;;;;;;0.40;0.40;;;11.60;43.60;;;;;;5085797;27;45209;-69
2023/01/21 04:08:42;;;;;;;0.30;0.30;;;11.70;43.60;;;;;;5085848;27;45263;-69
2023/01/21 04:11:09;;;;;;;0.37;0.37;;;11.80;43.50;;;;;;5086039;27;45395;-69
2023/01/21 04:13:37;;;;;;;0.30;0.30;;;11.80;43.40;;;;;;5085527;27;45567;-68
2023/01/21 04:16:05;;;;;;;0.40;0.40;;;11.90;43.30;;;;;;5085624;27;45403;-69
2023/01/21 04:18:32;;;;;;;0.43;0.43;;;11.90;43.10;;;;;;5085729;27;45258;-68
2023/01/21 04:20:58;;;;;;;0.37;0.37;;;12.00;43.00;;;;;;5085987;27;45430;-69
2023/01/21 04:23:25;;;;;;;0.30;0.30;;;12.00;43.00;;;;;;5085442;27;46423;-68
2023/01/21 04:25:52;;;;;;;0.40;0.40;;;12.00;42.90;;;;;;5085768;27;45291;-69
2023/01/21 04:28:19;;;;;;;0.33;0.30;;;12.00;42.80;;;;;;5085703;27;45375;-68
2023/01/21 04:30:48;;;;;;;0.40;0.40;;;12.10;42.80;;;;;;5085885;27;45391;-68
2023/01/21 04:33:15;;;;;;;0.23;0.23;;;12.10;42.80;;;;;;5085406;27;46292;-69
2023/01/21 04:35:41;;;;;;;0.37;0.30;;;12.00;42.80;;;;;;5085437;27;45396;-68
2023/01/21 04:38:08;;;;;;;0.53;0.40;;;12.00;42.80;;;;;;5085563;27;45377;-68
2023/01/21 04:40:35;;;;;;;0.43;0.43;;;12.00;42.90;;;;;;5085471;27;45485;-68
2023/01/21 04:43:02;;;;;;;0.40;0.40;;;12.00;42.90;;;;;;5086658;27;47305;-69
2023/01/21 04:45:29;;;;;;;0.57;0.57;;;12.00;43.00;;;;;;5089040;27;45156;-69
2023/01/21 04:47:57;;;;;;;0.30;0.30;;;12.00;43.00;;;;;;5088617;27;45400;-69
2023/01/21 04:50:24;;;;;;;0.37;0.37;;;11.90;43.10;;;;;;5089185;27;45495;-68
2023/01/21 04:52:50;;;;;;;0.30;0.30;;;11.90;43.10;;;;;;5088603;27;45264;-68
2023/01/21 04:55:17;;;;;;;1.63;0.60;;;11.90;43.10;;;;;;5088766;27;45217;-68
2023/01/21 04:57:44;;;;;;;0.37;0.37;;;11.90;43.20;;;;;;5088766;27;45323;-68
2023/01/21 05:00:12;;;;;;;0.50;0.50;;;11.80;43.20;;;;;;5089021;27;45228;-68
2023/01/21 05:02:39;;;;;;;0.53;0.47;;;11.80;43.20;;;;;;5088649;27;46374;-68
2023/01/21 05:05:08;;;;;;;0.50;0.50;;;11.80;43.80;;;;;;5088388;27;45139;-72
2023/01/21 05:07:34;;;;;;;1.37;0.70;;;11.80;43.20;;;;;;5088509;27;45280;-68
2023/01/21 05:10:01;;;;;;;0.60;0.60;;;11.70;43.40;;;;;;5088889;27;45344;-68
2023/01/21 05:12:28;;;;;;;0.43;0.43;;;11.70;43.40;;;;;;5088322;27;46384;-68
2023/01/21 05:14:56;;;;;;;2.00;0.70;;;11.70;43.40;;;;;;5088402;27;45228;-69
2023/01/21 05:17:23;;;;;;;0.70;0.70;;;11.70;43.40;;;;;;5088445;27;45334;-68
2023/01/21 05:19:50;;;;;;;0.60;0.60;;;11.70;43.50;;;;;;5088746;27;45157;-69
2023/01/21 05:22:18;;;;;;;0.67;0.67;;;11.60;43.40;;;;;;5088202;27;46723;-68
2023/01/21 05:24:45;;;;;;;0.80;0.80;;;11.60;43.50;;;;;;5087990;27;45301;-69
2023/01/21 05:27:12;;;;;;;1.27;0.83;;;11.50;43.50;;;;;;5088358;27;45268;-69
2023/01/21 05:29:40;;;;;;;1.03;0.60;;;11.50;43.60;;;;;;5088547;27;45218;-69
2023/01/21 05:32:07;;;;;;;1.10;0.60;;;11.50;43.60;;;;;;5088085;27;45262;-68
2023/01/21 05:34:33;;;;;;;1.03;0.60;;;11.50;43.80;;;;;;5087820;27;45241;-68
2023/01/21 05:37:00;;;;;;;0.80;0.80;;;11.50;43.80;;;;;;5088182;27;45497;-68
2023/01/21 05:39:28;;;;;;;0.80;0.70;;;11.40;43.60;;;;;;5088527;27;45122;-68
2023/01/21 05:41:55;;;;;;;0.53;0.53;;;11.50;43.60;;;;;;5087956;27;45243;-68
2023/01/21 05:44:22;;;;;;;1.23;0.80;;;11.60;43.60;;;;;;5088033;27;45300;-68
2023/01/21 05:46:49;;;;;;;0.80;0.80;;;11.80;43.40;;;;;;5088086;27;45283;-69
2023/01/21 05:49:16;;;;;;;2.00;0.90;;;12.20;43.00;;;;;;5088264;27;45192;-69
2023/01/21 05:51:43;;;;;;;0.70;0.70;;;12.50;42.50;;;;;;5087778;27;46418;-69
2023/01/21 05:54:10;;;;;;;1.00;0.70;;;12.70;42.10;;;;;;5086802;27;45195;-69
2023/01/21 05:56:38;;;;;;;0.80;0.80;;;13.00;41.70;;;;;;5087934;27;45380;-69
2023/01/21 05:59:05;;;;;;;1.23;0.83;;;13.10;41.50;;;;;;5088078;27;45485;-69
2023/01/21 06:01:31;;;;;;;0.90;0.70;;;13.20;41.40;;;;;;5087652;27;45200;-69
2023/01/21 06:03:58;;;;;;;1.10;1.00;;;13.20;41.30;;;;;;5087732;27;45259;-69
2023/01/21 06:06:25;;;;;;;1.60;1.00;;;13.30;41.30;;;;;;5087997;27;45188;-69
2023/01/21 06:08:52;;;;;;;0.83;0.80;;;13.30;41.30;;;;;;5087867;27;45374;-69
2023/01/21 06:11:19;;;;;;;0.70;0.60;;;13.30;41.30;;;;;;5084790;27;45561;-69
2023/01/21 06:13:47;;;;;;;1.13;0.80;;;13.30;41.30;;;;;;5087509;27;45344;-69
2023/01/21 06:16:14;;;;;;;0.83;0.80;;;13.30;41.30;;;;;;5087586;27;45247;-69
2023/01/21 06:18:40;;;;;;;0.80;0.80;;;13.30;41.20;;;;;;5087718;27;45489;-68
2023/01/21 06:21:07;;;;;;;1.03;0.90;;;13.30;41.30;;;;;;5087404;27;46618;-68
2023/01/21 06:23:34;;;;;;;1.03;0.83;;;13.30;41.30;;;;;;5087079;27;45310;-68
2023/01/21 06:26:01;;;;;;;0.80;0.80;;;13.30;41.40;;;;;;5087675;27;45282;-69
2023/01/21 06:28:28;;;;;;;0.80;0.80;;;13.30;41.40;;;;;;5087590;27;45210;-69
2023/01/21 06:30:56;;;;;;;1.00;0.80;;;13.20;41.50;;;;;;5087197;27;45233;-68
2023/01/21 06:33:23;;;;;;;1.67;0.80;;;13.20;41.50;;;;;;5087376;27;45375;-69
2023/01/21 06:35:50;;;;;;;2.03;0.87;;;13.20;41.60;;;;;;5087211;27;45286;-68
2023/01/21 06:38:17;;;;;;;1.30;0.83;;;13.20;41.60;;;;;;5087565;27;45361;-68
2023/01/21 06:40:44;;;;;;;1.90;0.80;;;13.10;41.60;;;;;;5087042;27;46667;-68
2023/01/21 06:43:10;;;;;;;0.83;0.83;;;13.10;41.70;;;;;;5087068;27;45278;-69
2023/01/21 06:45:37;;;;;;;0.60;0.60;;;13.10;41.70;;;;;;5087160;27;45277;-68
2023/01/21 06:48:06;;;;;;;0.53;0.53;;;13.00;41.70;;;;;;5087115;27;45493;-68
2023/01/21 06:50:33;;;;;;;1.27;0.90;;;13.00;41.70;;;;;;5086929;27;46392;-69
2023/01/21 06:52:59;;;;;;;1.17;0.80;;;13.00;41.80;;;;;;5087200;27;45272;-69
2023/01/21 06:55:26;;;;;;;0.90;0.90;;;13.00;41.80;;;;;;5086999;27;45190;-69
2023/01/21 06:57:53;;;;;;;1.17;0.90;;;12.90;41.80;;;;;;5087030;27;45464;-69
2023/01/21 07:00:21;;;;;;;0.70;0.70;;;12.90;41.90;;;;;;5086867;27;45283;-69
2023/01/21 07:02:47;;;;;;;0.77;0.77;;;12.90;41.90;;;;;;5086721;27;45194;-69
2023/01/21 07:05:18;;;;;;;2.23;0.87;;;12.80;41.90;;;;;;5086605;27;45238;-69
2023/01/21 07:07:45;;;;;;;0.80;0.80;;;12.80;42.00;;;;;;5086883;27;45271;-69
2023/01/21 07:10:11;;;;;;;0.90;0.90;;;12.80;42.00;;;;;;5086455;27;46382;-69
2023/01/21 07:12:38;;;;;;;0.70;0.70;;;12.80;42.00;;;;;;5086516;27;45184;-68
2023/01/21 07:15:07;;;;;;;1.00;0.90;;;12.70;42.00;;;;;;5086546;27;45315;-69
2023/01/21 07:17:33;;;;;;;0.67;0.67;;;12.70;42.00;;;;;;5086678;27;45438;-68
2023/01/21 07:20:00;;;;;;;1.73;1.00;;;12.70;42.10;;;;;;5086352;27;46391;-69
2023/01/21 07:22:28;;;;;;;0.87;0.80;;;12.70;42.10;;;;;;5086566;27;45364;-68
2023/01/21 07:24:55;;;;;;;1.03;0.97;;;12.60;41.90;;;;;;5086248;27;45308;-68
2023/01/21 07:27:22;;;;;;;0.73;0.73;;;12.60;42.00;;;;;;5087021;27;45269;-68
2023/01/21 07:29:49;;;;;;;0.73;0.73;;;12.60;42.00;;;;;;5086228;27;46376;-69
2023/01/21 07:32:16;;;;;;;0.80;0.80;;;12.60;42.00;;;;;;5086238;27;45375;-68
2023/01/21 07:34:42;;;;;;;0.87;0.80;;;12.50;42.10;;;;;;5086289;27;45395;-69
2023/01/21 07:37:09;;;;;;;0.70;0.67;;;12.50;42.20;;;;;;5086315;27;45263;-68
2023/01/21 07:39:37;;;;;;;0.53;0.53;;;12.50;42.20;;;;;;5086143;27;47287;-69
2023/01/21 07:42:04;;;;;;;1.73;1.07;;;12.50;42.10;;;;;;5086174;27;45437;-69
2023/01/21 07:44:32;;;;;;;1.93;0.87;;;12.50;42.20;;;;;;5086277;27;45368;-69
2023/01/21 07:46:59;;;;;;;0.73;0.73;;;12.40;42.10;;;;;;5086291;27;45391;-70
2023/01/21 07:49:26;;;;;;;0.87;0.87;;;12.40;42.20;;;;;;5086051;27;46481;-69
2023/01/21 07:51:56;;;;;;;1.10;1.00;;;12.40;42.20;;;;;;5083342;27;45453;-69
2023/01/21 07:54:23;;;;;;;0.80;0.77;;;12.40;42.40;;;;;;5086279;27;45225;-69
2023/01/21 07:56:51;;;;;;;0.70;0.70;;;12.30;42.40;;;;;;5086230;27;45268;-69
2023/01/21 07:59:18;;;;;;;1.13;0.80;;;12.30;42.40;;;;;;5085803;27;48931;-69
2023/01/21 08:01:45;;;;;;;0.70;0.70;;;12.30;42.50;;;;;;5086222;27;45304;-68
2023/01/21 08:04:12;;;;;;;0.80;0.80;;;12.20;42.50;;;;;;5085914;27;45456;-69
2023/01/21 08:06:40;;;;;;;0.67;0.63;;;12.30;42.60;;;;;;5086137;27;45268;-69
2023/01/21 08:09:07;;;;;;;1.50;1.00;;;12.20;42.60;;;;;;5085621;27;46857;-69
2023/01/21 08:11:35;;;;;;;0.90;0.90;;;12.10;42.60;;;;;;5084433;27;45483;-69
2023/01/21 08:14:04;;;;;;;1.20;0.90;;;12.10;42.70;;;;;;5094314;27;45513;-69
2023/01/21 08:16:31;;;;;;;0.97;0.90;;;12.10;42.70;;;;;;5092758;27;45366;-70
2023/01/21 08:18:58;;;;;;;0.83;0.80;;;12.00;42.70;;;;;;5086270;27;46800;-69
2023/01/21 08:21:24;;;;;;;0.60;0.60;;;12.00;42.80;;;;;;5094571;27;45270;-69
2023/01/21 08:23:51;;;;;;;0.80;0.80;;;12.00;42.90;;;;;;5100711;27;45445;-70
2023/01/21 08:26:18;;;;;;;1.17;1.07;;;12.00;43.80;;;;;;5104425;27;45517;-70
2023/01/21 08:28:45;;;;;;;3.70;1.10;;;12.00;43.20;;;;;;5098950;27;46633;-71
2023/01/21 08:31:13;;;;;;;2.23;0.90;;;12.00;42.60;;;;;;5108968;27;45135;-70
2023/01/21 08:33:40;;;;;;;0.93;0.93;;;11.90;42.10;;;;;;5109714;27;45221;-70
2023/01/21 08:36:08;;;;;;;2.90;1.30;;;11.90;42.00;;;;;;5109645;27;45309;-70
2023/01/21 08:38:35;;;;;;;0.87;0.87;;;11.90;42.10;;;;;;5089443;27;46775;-70
2023/01/21 08:41:02;;;;;;;1.57;1.27;;;11.90;42.00;;;;;;5088967;27;45234;-70
2023/01/21 08:43:29;;;;;;;2.03;1.10;;;11.90;42.00;;;;;;5089309;27;45370;-71
2023/01/21 08:45:56;;;;;;;5.70;1.30;;;11.90;42.60;;;;;;5100862;27;45609;-73
2023/01/21 08:48:24;;;;;;;1.20;1.10;;;11.90;42.20;;;;;;5094668;27;46410;-73
2023/01/21 08:50:51;;;;;;;2.10;1.20;;;11.80;42.00;;;;;;5089019;27;45243;-73
2023/01/21 08:53:17;;;;;;;3.83;1.23;;;11.80;42.20;;;;;;5095173;27;45358;-73
2023/01/21 08:55:44;;;;;;;1.33;0.80;;;11.80;42.30;;;;;;5092244;27;45504;-73
2023/01/21 08:58:11;;;;;;;1.13;1.00;;;11.80;42.40;;;;;;5107013;27;46633;-73
2023/01/21 09:00:38;;;;;;;1.00;0.90;;;11.90;42.40;;;;;;5087620;27;45775;-73
2023/01/21 09:03:05;;;;;;;0.90;0.90;;;11.90;42.40;;;;;;5088946;28;45335;-72
2023/01/21 09:05:33;;;;;;;1.20;0.97;;;11.90;42.50;;;;;;5087649;28;46632;-73
2023/01/21 09:08:00;;;;;;;1.37;1.10;;;11.90;42.40;;;;;;5087169;27;45473;-73
2023/01/21 09:13:11;;;;;;;0.97;0.97;;;11.90;42.50;;;;;;5090928;27;45278;-77
2023/01/21 09:15:39;;;;;;;1.37;1.07;;;11.90;42.90;;;;;;5081494;27;45313;-70
2023/01/21 09:18:05;;;;;;;3.00;1.20;;;11.90;43.10;;;;;;5087094;27;47469;-72
2023/01/21 09:20:34;;;;;;;2.67;1.50;;;12.00;44.10;;;;;;5087149;27;45397;-71
2023/01/21 09:23:00;;;;;;;2.03;1.60;;;12.10;44.70;;;;;;5095629;27;45415;-71
2023/01/21 09:25:27;;;;;;;1.37;1.20;;;12.20;45.80;;;;;;5087779;27;45348;-70
2023/01/21 09:27:54;;;;;;;6.80;1.50;;;12.30;45.60;;;;;;5092537;27;45247;-72
2023/01/21 09:30:21;;;;;;;4.33;1.50;;;12.40;45.30;;;;;;5084535;27;45175;-72
2023/01/21 09:32:48;;;;;;;1.90;1.33;;;12.40;45.10;;;;;;5090039;27;45516;-69
2023/01/21 09:35:15;;;;;;;1.30;1.20;;;12.50;44.90;;;;;;5097851;27;45294;-69
2023/01/21 09:37:44;;;;;;;1.50;1.33;;;12.50;45.30;;;;;;5087809;27;45315;-71
2023/01/21 09:40:14;;;;;;;2.90;1.60;;;12.50;44.70;;;;;;5085759;27;45275;-70
2023/01/21 09:42:41;;;;;;;2.60;1.53;;;12.50;44.60;;;;;;5087475;27;45454;-71
2023/01/21 09:45:09;;;;;;;2.97;1.30;;;12.50;44.60;;;;;;5087706;27;45352;-69
2023/01/21 09:47:37;;;;;;;1.43;1.33;;;12.50;44.40;;;;;;5099824;27;46375;-70
2023/01/21 09:50:05;;;;;;;2.23;1.57;;;12.50;44.30;;;;;;5101752;27;45250;-70
2023/01/21 09:52:35;;;;;;;1.67;1.30;;;12.50;44.30;;;;;;5078401;28;45479;-72
2023/01/21 09:55:04;;;;;;;1.90;1.40;;;12.50;44.20;;;;;;5077372;27;45499;-73
2023/01/21 09:57:40;;;;;;;1.50;1.20;;;12.50;44.30;;;;;;5087598;27;46389;-71
2023/01/21 10:00:33;;;;;;;3.13;1.40;;;12.50;44.30;;;;;;5086364;27;45437;-71
2023/01/21 10:03:03;;;;;;;1.43;1.33;;;12.60;44.30;;;;;;5085559;28;45552;-72
2023/01/21 10:05:45;;;;;;;2.63;1.20;;;12.60;44.30;;;;;;5087113;27;45149;-73
2023/01/21 10:08:16;;;;;;;2.67;1.60;;;12.60;44.30;;;;;;5085545;27;46485;-72
2023/01/21 10:10:47;;;;;;;1.73;1.30;;;12.60;44.30;;;;;;5087989;27;45244;-73
2023/01/21 10:13:23;;;;;;;2.27;1.60;;;12.60;44.20;;;;;;5086557;27;45502;-72
2023/01/21 10:15:54;;;;;;;3.00;1.30;;;12.60;44.00;;;;;;5078318;27;45486;-74
2023/01/21 10:18:24;;;;;;;1.60;1.50;;;12.70;43.90;;;;;;5083821;27;45468;-72
2023/01/21 10:20:52;;;;;;;1.70;1.40;;;12.70;43.90;;;;;;5083017;27;45421;-73
2023/01/21 10:23:21;;;;;;;2.83;1.50;;;12.70;43.80;;;;;;5082459;27;45581;-72
2023/01/21 10:25:50;;;;;;;2.20;1.40;;;12.70;43.70;;;;;;5082184;28;45372;-74
2023/01/21 10:28:19;;;;;;;1.57;1.33;;;12.70;43.70;;;;;;5084036;28;45544;-73
2023/01/21 10:30:49;;;;;;;1.73;1.40;;;12.70;43.60;;;;;;5082626;28;45438;-75
2023/01/21 10:33:17;;;;;;;2.90;1.40;;;12.80;43.50;;;;;;5080951;28;45552;-74
2023/01/21 10:35:56;;;;;;;2.07;1.33;;;12.80;43.40;;;;;;5083900;28;45397;-74
2023/01/21 10:38:25;;;;;;;2.27;1.37;;;12.80;43.40;;;;;;5084136;28;46458;-73
2023/01/21 10:40:55;;;;;;;4.83;1.70;;;12.80;43.30;;;;;;5082678;27;45390;-74
2023/01/21 10:43:29;;;;;;;3.17;1.50;;;12.80;43.30;;;;;;5080782;28;45481;-73
2023/01/21 10:45:57;;;;;;;1.47;1.33;;;12.90;43.30;;;;;;5083048;28;45663;-73
2023/01/21 10:48:28;;;;;;;1.60;1.47;;;12.90;43.20;;;;;;5080665;27;46521;-74
2023/01/21 10:50:56;;;;;;;2.83;1.30;;;13.00;43.20;;;;;;5082206;28;45466;-73
2023/01/21 10:53:27;;;;;;;1.40;1.30;;;13.00;43.10;;;;;;5081144;28;46581;-74
2023/01/21 10:56:14;;;;;;;3.00;1.10;;;13.00;43.10;;;;;;5083927;28;45394;-74
2023/01/21 10:58:42;;;;;;;1.93;1.50;;;13.00;43.30;;;;;;5081751;28;46480;-73
2023/01/21 11:01:15;;;;;;;1.70;1.40;;;13.10;43.20;;;;;;5083317;28;45705;-73
2023/01/21 11:03:43;;;;;;;2.77;1.70;;;13.10;43.10;;;;;;5080270;28;45462;-75
2023/01/21 11:06:11;;;;;;;1.63;1.53;;;13.10;42.90;;;;;;5079030;27;45530;-72
2023/01/21 11:08:38;;;;;;;3.17;1.50;;;13.20;43.00;;;;;;5084993;27;46644;-75
2023/01/21 11:11:07;;;;;;;1.93;1.67;;;13.30;42.90;;;;;;5083726;27;45473;-75
2023/01/21 11:13:34;;;;;;;1.60;1.50;;;13.40;42.80;;;;;;5079695;27;45463;-75
2023/01/21 11:16:00;;;;;;;3.03;1.63;;;13.40;42.70;;;;;;5081196;27;45678;-72
2023/01/21 11:18:30;;;;;;;1.77;1.40;;;13.40;42.60;;;;;;5082365;28;46330;-72
2023/01/21 11:20:59;;;;;;;1.70;1.50;;;13.50;42.60;;;;;;5082675;28;45489;-74
2023/01/21 11:23:28;;;;;;;4.80;1.60;;;13.40;42.70;;;;;;5082897;28;45529;-73
2023/01/21 11:26:01;;;;;;;4.07;1.60;;;13.40;42.90;;;;;;5082202;28;45466;-71
2023/01/21 11:28:30;;;;;;;2.33;1.50;;;13.40;42.90;;;;;;5083211;27;45446;-73
2023/01/21 11:31:09;;;;;;;2.10;1.63;;;13.40;42.90;;;;;;5083610;28;45405;-70
2023/01/21 11:33:36;;;;;;;1.48;1.38;;;13.50;42.80;;;;;;5083391;27;45664;-71
2023/01/21 11:36:13;;;;;;;3.80;1.50;;;13.60;42.60;;;;;;5080470;28;45796;-73
2023/01/21 11:38:40;;;;;;;1.83;1.43;;;13.70;42.40;;;;;;5082145;28;45406;-72
2023/01/21 11:41:15;;;;;;;1.53;1.40;;;13.80;42.10;;;;;;5082549;28;45529;-75
2023/01/21 11:43:44;;;;;;;2.17;1.50;;;13.90;41.90;;;;;;5083474;27;45537;-75
2023/01/21 11:46:28;;;;;;;3.37;1.70;;;14.00;41.80;;;;;;5078288;27;45650;-74
2023/01/21 11:48:56;;;;;;;1.77;1.30;;;14.10;41.80;;;;;;5082888;27;45449;-73
2023/01/21 11:51:23;;;;;;;2.60;1.50;;;14.20;41.70;;;;;;5084312;27;45437;-73
2023/01/21 11:54:06;;;;;;;2.23;1.47;;;14.20;41.60;;;;;;5081077;27;45517;-73
2023/01/21 11:56:33;;;;;;;1.97;1.60;;;14.20;41.60;;;;;;5077803;28;45485;-72
2023/01/21 11:59:01;;;;;;;2.10;1.37;;;14.20;41.50;;;;;;5081470;28;46377;-74
2023/01/21 12:01:28;;;;;;;3.97;1.90;;;14.10;41.50;;;;;;5081267;28;45538;-73
2023/01/21 12:03:55;;;;;;;2.60;1.90;;;14.00;41.70;;;;;;5078844;28;45473;-73
2023/01/21 12:06:23;;;;;;;2.70;1.87;;;14.00;41.90;;;;;;5080697;28;45193;-74
2023/01/21 12:08:50;;;;;;;2.30;1.80;;;14.00;41.80;;;;;;5082116;28;45401;-73
2023/01/21 12:11:19;;;;;;;4.07;2.20;;;14.00;41.70;;;;;;5082235;28;45446;-73
2023/01/21 12:13:48;;;;;;;2.63;1.97;;;14.00;41.70;;;;;;5081197;28;45892;-73
2023/01/21 12:16:29;;;;;;;6.90;2.23;;;14.10;41.60;;;;;;5077135;28;46254;-76
2023/01/21 12:19:23;;;;;;;2.67;1.80;;;14.20;41.30;;;;;;5078672;28;47284;-71
2023/01/21 12:21:59;;;;;;;2.70;1.80;;;14.20;41.30;;;;;;5080697;28;45513;-73
2023/01/21 12:24:33;;;;;;;3.20;2.00;;;14.30;41.20;;;;;;5080149;27;45497;-74
2023/01/21 12:27:03;;;;;;;2.63;1.70;;;14.40;41.10;;;;;;5081079;28;45506;-74
2023/01/21 12:29:37;;;;;;;3.40;1.87;;;14.40;41.00;;;;;;5082087;27;47553;-74
2023/01/21 12:32:09;;;;;;;2.67;2.00;;;14.50;40.90;;;;;;5081271;28;45413;-74
2023/01/21 12:34:38;;;;;;;3.57;2.03;;;14.50;40.70;;;;;;5082920;28;45440;-74
2023/01/21 12:37:08;;;;;;;4.07;2.00;;;14.50;40.60;;;;;;5082447;27;45404;-73
2023/01/21 12:39:36;;;;;;;2.97;2.00;;;14.50;40.60;;;;;;5079968;28;46663;-75
2023/01/21 12:42:07;;;;;;;2.67;1.60;;;14.50;40.60;;;;;;5083092;28;45356;-74
2023/01/21 12:44:37;;;;;;;2.00;1.30;;;14.60;40.50;;;;;;5081950;27;45431;-77
2023/01/21 12:47:10;;;;;;;3.15;1.88;;;14.70;40.40;;;;;;5084364;27;45648;-77
2023/01/21 12:50:08;;;;;;;3.97;1.80;;;14.70;40.20;;;;;;5080102;28;46422;-76
2023/01/21 12:52:39;;;;;;;3.15;1.83;;;14.80;40.10;;;;;;5077141;28;45567;-75
2023/01/21 12:55:11;;;;;;;2.40;1.80;;;14.80;40.20;;;;;;5080705;28;45484;-75
2023/01/21 12:57:39;;;;;;;2.75;1.92;;;14.80;40.10;;;;;;5080930;28;45641;-74
2023/01/21 13:00:12;;;;;;;7.65;1.70;;;14.70;40.10;;;;;;5079312;27;46011;-76
2023/01/21 13:02:43;;;;;;;1.80;1.70;;;14.70;40.50;;;;;;5082517;28;45502;-73
2023/01/21 13:05:12;;;;;;;10.40;1.95;;;14.60;41.20;;;;;;5085273;27;45598;-75
2023/01/21 13:07:42;;;;;;;2.57;1.67;;;14.50;41.80;;;;;;5085278;27;45473;-73